sensor_id;sensor_type;location;lat;lon;timestamp;pressure;altitude;pressure_sealevel;temperature;humidity
26539;BME280;14205;43.200;24.170;2023-07-20T00:00:44;111896.47;;;-137.44;100.00
26539;BME280;14205;43.200;24.170;2023-07-20T00:03:14;110069.41;;;-137.44;100.00
26539;BME280;14205;43.200;24.170;2023-07-20T00:05:47;108764.94;;;-137.44;100.00
26539;BME280;14205;43.200;24.170;2023-07-20T00:08:13;111374.34;;;-137.44;100.00
26539;BME280;14205;43.200;24.170;2023-07-20T00:10:40;114246.97;;;-137.44;100.00
26539;BME280;14205;43.200;24.170;2023-07-20T00:13:06;111896.47;;;-137.44;100.00
26539;BME280;14205;43.200;24.170;2023-07-20T00:15:31;112418.69;;;-137.44;100.00
26539;BME280;14205;43.200;24.170;2023-07-20T00:17:57;112940.94;;;-137.44;100.00
26539;BME280;14205;43.200;24.170;2023-07-20T00:20:24;110069.41;;;-137.44;100.00
26539;BME280;14205;43.200;24.170;2023-07-20T00:22:50;111374.34;;;-137.44;100.00
26539;BME280;14205;43.200;24.170;2023-07-20T00:25:16;110330.34;;;-137.44;100.00
26539;BME280;14205;43.200;24.170;2023-07-20T00:27:42;112679.81;;;-137.44;100.00
26539;BME280;14205;43.200;24.170;2023-07-20T00:30:07;116337.63;;;-137.44;100.00
26539;BME280;14205;43.200;24.170;2023-07-20T00:32:33;116599.06;;;-137.44;100.00
26539;BME280;14205;43.200;24.170;2023-07-20T00:34:59;118429.53;;;-137.44;100.00
26539;BME280;14205;43.200;24.170;2023-07-20T00:37:24;118693.16;;;-137.44;100.00
26539;BME280;14205;43.200;24.170;2023-07-20T00:39:50;118693.16;;;-137.44;100.00
26539;BME280;14205;43.200;24.170;2023-07-20T00:42:16;118693.16;;;-137.44;100.00
26539;BME280;14205;43.200;24.170;2023-07-20T00:44:41;118693.16;;;-137.44;100.00
26539;BME280;14205;43.200;24.170;2023-07-20T00:47:07;117644.94;;;-137.44;100.00
26539;BME280;14205;43.200;24.170;2023-07-20T00:49:32;116337.63;;;-137.44;100.00
26539;BME280;14205;43.200;24.170;2023-07-20T00:52:00;112679.81;;;-137.44;100.00
26539;BME280;14205;43.200;24.170;2023-07-20T00:54:27;112418.69;;;-137.44;100.00
26539;BME280;14205;43.200;24.170;2023-07-20T00:56:53;111635.41;;;-137.44;100.00
26539;BME280;14205;43.200;24.170;2023-07-20T00:59:19;111896.47;;;-137.44;100.00
26539;BME280;14205;43.200;24.170;2023-07-20T01:01:46;115030.81;;;-137.44;100.00
26539;BME280;14205;43.200;24.170;2023-07-20T01:04:11;115814.84;;;-137.44;100.00
26539;BME280;14205;43.200;24.170;2023-07-20T01:06:47;112679.81;;;-137.44;100.00
26539;BME280;14205;43.200;24.170;2023-07-20T01:09:19;106418.13;;;-137.44;100.00
26539;BME280;14205;43.200;24.170;2023-07-20T01:14:18;110591.31;;;-137.44;100.00
26539;BME280;14205;43.200;24.170;2023-07-20T01:16:43;108504.09;;;-137.44;100.00
26539;BME280;14205;43.200;24.170;2023-07-20T01:19:09;109547.56;;;-137.44;100.00
26539;BME280;14205;43.200;24.170;2023-07-20T01:21:53;106678.78;;;-137.44;100.00
26539;BME280;14205;43.200;24.170;2023-07-20T01:32:40;105115.00;;;-137.44;100.00
26539;BME280;14205;43.200;24.170;2023-07-20T01:35:08;100948.31;;;-137.44;100.00
26539;BME280;14205;43.200;24.170;2023-07-20T01:37:35;103031.03;;;-137.44;100.00
26539;BME280;14205;43.200;24.170;2023-07-20T01:40:02;103551.91;;;-137.44;100.00
26539;BME280;14205;43.200;24.170;2023-07-20T01:42:28;107200.22;;;-137.44;100.00
26539;BME280;14205;43.200;24.170;2023-07-20T01:44:54;106939.50;;;-137.44;100.00
26539;BME280;14205;43.200;24.170;2023-07-20T01:47:20;105375.59;;;-137.44;100.00
26539;BME280;14205;43.200;24.170;2023-07-20T01:49:45;103551.91;;;-137.44;100.00
26539;BME280;14205;43.200;24.170;2023-07-20T01:52:11;103551.91;;;-137.44;100.00
26539;BME280;14205;43.200;24.170;2023-07-20T01:54:36;100427.84;;;-137.44;100.00
26539;BME280;14205;43.200;24.170;2023-07-20T01:57:02;102770.63;;;-137.44;100.00
26539;BME280;14205;43.200;24.170;2023-07-20T01:59:28;101468.88;;;-137.44;100.00
26539;BME280;14205;43.200;24.170;2023-07-20T02:01:53;105115.00;;;-137.44;100.00
26539;BME280;14205;43.200;24.170;2023-07-20T02:04:19;101989.53;;;-137.44;100.00
26539;BME280;14205;43.200;24.170;2023-07-20T02:06:44;97306.56;;;-137.44;100.00
26539;BME280;14205;43.200;24.170;2023-07-20T02:09:10;108243.28;;;-137.44;100.00
26539;BME280;14205;43.200;24.170;2023-07-20T02:11:35;110852.31;;;-137.44;100.00
26539;BME280;14205;43.200;24.170;2023-07-20T02:14:00;111374.34;;;-137.44;100.00
26539;BME280;14205;43.200;24.170;2023-07-20T02:16:26;110852.31;;;-137.44;100.00
26539;BME280;14205;43.200;24.170;2023-07-20T02:18:52;108243.28;;;-137.44;100.00
26539;BME280;14205;43.200;24.170;2023-07-20T02:21:18;107460.94;;;-137.44;100.00
26539;BME280;14205;43.200;24.170;2023-07-20T02:23:43;96786.63;;;-137.44;100.00
26539;BME280;14205;43.200;24.170;2023-07-20T02:26:08;94188.09;;;-137.44;100.00
26539;BME280;14205;43.200;24.170;2023-07-20T02:28:34;102770.63;;;-137.44;100.00
26539;BME280;14205;43.200;24.170;2023-07-20T02:30:59;104854.44;;;-137.44;100.00
26539;BME280;14205;43.200;24.170;2023-07-20T02:33:26;101989.53;;;-137.44;100.00
26539;BME280;14205;43.200;24.170;2023-07-20T02:35:51;100688.06;;;-137.44;100.00
26539;BME280;14205;43.200;24.170;2023-07-20T02:38:17;100688.06;;;-137.44;100.00
26539;BME280;14205;43.200;24.170;2023-07-20T02:40:42;101468.88;;;-137.44;100.00
26539;BME280;14205;43.200;24.170;2023-07-20T02:43:08;101468.88;;;-137.44;100.00
26539;BME280;14205;43.200;24.170;2023-07-20T02:45:35;102770.63;;;-137.44;100.00
26539;BME280;14205;43.200;24.170;2023-07-20T02:48:00;105636.19;;;-137.44;100.00
26539;BME280;14205;43.200;24.170;2023-07-20T02:50:26;108764.94;;;-137.44;100.00
26539;BME280;14205;43.200;24.170;2023-07-20T02:52:51;108504.09;;;-137.44;100.00
26539;BME280;14205;43.200;24.170;2023-07-20T02:55:17;106418.13;;;-137.44;100.00
26539;BME280;14205;43.200;24.170;2023-07-20T02:57:42;107721.72;;;-137.44;100.00
26539;BME280;14205;43.200;24.170;2023-07-20T03:00:08;104854.44;;;-137.44;100.00
26539;BME280;14205;43.200;24.170;2023-07-20T03:02:34;104072.88;;;-137.44;100.00
26539;BME280;14205;43.200;24.170;2023-07-20T03:04:59;104333.38;;;-137.44;100.00
26539;BME280;14205;43.200;24.170;2023-07-20T03:07:30;96266.78;;;-137.44;100.00
26539;BME280;14205;43.200;24.170;2023-07-20T03:09:55;99907.44;;;-137.44;100.00
26539;BME280;14205;43.200;24.170;2023-07-20T03:12:21;100948.31;;;-137.44;100.00
26539;BME280;14205;43.200;24.170;2023-07-20T03:14:47;97566.56;;;-137.44;100.00
26539;BME280;14205;43.200;24.170;2023-07-20T03:17:12;92629.91;;;-137.44;100.00
26539;BME280;14205;43.200;24.170;2023-07-20T03:19:37;98866.84;;;-137.44;100.00
26539;BME280;14205;43.200;24.170;2023-07-20T03:22:03;96786.63;;;-137.44;100.00
26539;BME280;14205;43.200;24.170;2023-07-20T03:24:29;99907.44;;;-137.44;100.00
26539;BME280;14205;43.200;24.170;2023-07-20T03:26:54;96266.78;;;-137.44;100.00
26539;BME280;14205;43.200;24.170;2023-07-20T03:29:21;98606.75;;;-137.44;100.00
26539;BME280;14205;43.200;24.170;2023-07-20T03:31:46;94707.66;;;-137.44;100.00
26539;BME280;14205;43.200;24.170;2023-07-20T03:34:11;97046.59;;;-137.44;100.00
26539;BME280;14205;43.200;24.170;2023-07-20T03:36:37;99907.44;;;-137.44;100.00
26539;BME280;14205;43.200;24.170;2023-07-20T03:39:02;101989.53;;;-137.44;100.00
26539;BME280;14205;43.200;24.170;2023-07-20T03:41:28;105636.19;;;-137.44;100.00
26539;BME280;14205;43.200;24.170;2023-07-20T03:43:54;107982.47;;;-137.44;100.00
26539;BME280;14205;43.200;24.170;2023-07-20T03:46:19;110069.41;;;-137.44;100.00
26539;BME280;14205;43.200;24.170;2023-07-20T03:48:45;110069.41;;;-137.44;100.00
26539;BME280;14205;43.200;24.170;2023-07-20T03:51:10;106157.44;;;-137.44;100.00
26539;BME280;14205;43.200;24.170;2023-07-20T03:53:36;109025.78;;;-137.44;100.00
26539;BME280;14205;43.200;24.170;2023-07-20T03:56:01;115292.16;;;-137.44;100.00
26539;BME280;14205;43.200;24.170;2023-07-20T03:58:27;117644.94;;;-137.44;100.00
26539;BME280;14205;43.200;24.170;2023-07-20T04:00:52;118429.53;;;-137.44;100.00
26539;BME280;14205;43.200;24.170;2023-07-20T04:03:18;118693.16;;;-137.44;100.00
26539;BME280;14205;43.200;24.170;2023-07-20T04:05:44;118693.16;;;-137.44;100.00
26539;BME280;14205;43.200;24.170;2023-07-20T04:08:10;118693.16;;;-137.44;100.00
26539;BME280;14205;43.200;24.170;2023-07-20T04:10:39;118693.16;;;-137.44;100.00
26539;BME280;14205;43.200;24.170;2023-07-20T04:13:08;118693.16;;;-137.44;100.00
26539;BME280;14205;43.200;24.170;2023-07-20T04:15:33;118691.09;;;-137.44;100.00
26539;BME280;14205;43.200;24.170;2023-07-20T04:17:59;118693.16;;;-137.44;100.00
26539;BME280;14205;43.200;24.170;2023-07-20T04:20:24;118167.97;;;-137.44;100.00
26539;BME280;14205;43.200;24.170;2023-07-20T04:22:49;118693.16;;;-137.44;100.00
26539;BME280;14205;43.200;24.170;2023-07-20T04:25:16;118693.16;;;-137.44;100.00
26539;BME280;14205;43.200;24.170;2023-07-20T04:27:41;118693.16;;;-137.44;100.00
26539;BME280;14205;43.200;24.170;2023-07-20T04:30:08;118429.53;;;-137.44;100.00
26539;BME280;14205;43.200;24.170;2023-07-20T04:32:33;117644.94;;;-137.44;100.00
26539;BME280;14205;43.200;24.170;2023-07-20T04:34:59;117906.44;;;-137.44;100.00
26539;BME280;14205;43.200;24.170;2023-07-20T04:37:24;117383.44;;;-137.44;100.00
26539;BME280;14205;43.200;24.170;2023-07-20T04:39:50;116076.22;;;-137.44;100.00
26539;BME280;14205;43.200;24.170;2023-07-20T04:42:15;115553.50;;;-137.44;100.00
26539;BME280;14205;43.200;24.170;2023-07-20T04:44:41;117906.44;;;-137.44;100.00
26539;BME280;14205;43.200;24.170;2023-07-20T04:47:06;116860.50;;;-137.44;100.00
26539;BME280;14205;43.200;24.170;2023-07-20T04:49:33;116860.50;;;-137.44;100.00
26539;BME280;14205;43.200;24.170;2023-07-20T04:51:59;117906.44;;;-137.44;100.00
26539;BME280;14205;43.200;24.170;2023-07-20T04:54:24;116599.06;;;-137.44;100.00
26539;BME280;14205;43.200;24.170;2023-07-20T04:56:52;116599.06;;;-137.44;100.00
26539;BME280;14205;43.200;24.170;2023-07-20T04:59:18;116599.06;;;-137.44;100.00
26539;BME280;14205;43.200;24.170;2023-07-20T05:01:43;115553.50;;;-137.44;100.00
26539;BME280;14205;43.200;24.170;2023-07-20T05:04:09;116599.06;;;-137.44;100.00
26539;BME280;14205;43.200;24.170;2023-07-20T05:06:34;117383.44;;;-137.44;100.00
26539;BME280;14205;43.200;24.170;2023-07-20T05:09:00;117906.44;;;-137.44;100.00
26539;BME280;14205;43.200;24.170;2023-07-20T05:11:25;116076.22;;;-137.44;100.00
26539;BME280;14205;43.200;24.170;2023-07-20T05:13:51;115814.84;;;-137.44;100.00
26539;BME280;14205;43.200;24.170;2023-07-20T05:16:16;116337.63;;;-137.44;100.00
26539;BME280;14205;43.200;24.170;2023-07-20T05:18:42;111113.34;;;-137.44;100.00
26539;BME280;14205;43.200;24.170;2023-07-20T05:21:07;112157.56;;;-137.44;100.00
26539;BME280;14205;43.200;24.170;2023-07-20T05:23:33;111896.47;;;-137.44;100.00
26539;BME280;14205;43.200;24.170;2023-07-20T05:25:59;109808.47;;;-137.44;100.00
26539;BME280;14205;43.200;24.170;2023-07-20T05:28:26;109808.47;;;-137.44;100.00
26539;BME280;14205;43.200;24.170;2023-07-20T05:30:55;108243.28;;;-137.44;100.00
26539;BME280;14205;43.200;24.170;2023-07-20T05:33:21;107460.94;;;-137.44;100.00
26539;BME280;14205;43.200;24.170;2023-07-20T05:35:47;102249.88;;;-137.44;100.00
26539;BME280;14205;43.200;24.170;2023-07-20T05:38:12;104333.38;;;-137.44;100.00
26539;BME280;14205;43.200;24.170;2023-07-20T05:40:40;101208.59;;;-137.44;100.00
26539;BME280;14205;43.200;24.170;2023-07-20T05:43:06;94707.66;;;-137.44;100.00
26539;BME280;14205;43.200;24.170;2023-07-20T05:45:31;96526.69;;;-137.44;100.00
26539;BME280;14205;43.200;24.170;2023-07-20T05:47:57;90553.44;;;-137.44;100.00
26539;BME280;14205;43.200;24.170;2023-07-20T05:50:22;89515.66;;;-137.44;100.00
26539;BME280;14205;43.200;24.170;2023-07-20T05:52:48;88737.53;;;-137.44;100.00
26539;BME280;14205;43.200;24.170;2023-07-20T05:55:13;76569.72;;;-137.44;100.00
26539;BME280;14205;43.200;24.170;2023-07-20T05:57:39;71663.00;;;-137.44;100.00
26539;BME280;14205;43.200;24.170;2023-07-20T06:00:09;76311.28;;;-137.44;100.00
26539;BME280;14205;43.200;24.170;2023-07-20T06:02:35;78120.66;;;-137.44;100.00
26539;BME280;14205;43.200;24.170;2023-07-20T06:05:00;74761.16;;;-137.44;100.00
26539;BME280;14205;43.200;24.170;2023-07-20T06:07:26;68052.03;;;-137.44;100.00
26539;BME280;14205;43.200;24.170;2023-07-20T06:09:51;58270.06;;;-137.44;100.00
26539;BME280;14205;43.200;24.170;2023-07-20T06:12:17;64444.88;;;-137.44;100.00
26539;BME280;14205;43.200;24.170;2023-07-20T06:14:42;52874.28;;;-137.44;100.00
26539;BME280;14205;43.200;24.170;2023-07-20T06:17:08;55289.19;;;-137.44;100.00
26539;BME280;14205;43.200;24.170;2023-07-20T06:19:33;46230.16;;;-137.44;100.00
26539;BME280;14205;43.200;24.170;2023-07-20T06:21:58;45105.75;;;-137.44;100.00
26539;BME280;14205;43.200;24.170;2023-07-20T06:24:24;45151.75;;;-137.44;100.00
26539;BME280;14205;43.200;24.170;2023-07-20T06:26:49;44769.72;;;-137.44;100.00
26539;BME280;14205;43.200;24.170;2023-07-20T06:29:15;44767.69;;;-137.44;100.00
26539;BME280;14205;43.200;24.170;2023-07-20T06:31:40;44775.72;;;-137.44;100.00
26539;BME280;14205;43.200;24.170;2023-07-20T06:34:06;44867.72;;;-137.44;100.00
26539;BME280;14205;43.200;24.170;2023-07-20T06:36:31;45213.78;;;-137.44;100.00
26539;BME280;14205;43.200;24.170;2023-07-20T06:38:57;44827.72;;;-137.44;100.00
26539;BME280;14205;43.200;24.170;2023-07-20T06:41:22;44769.72;;;-137.44;100.00
26539;BME280;14205;43.200;24.170;2023-07-20T06:43:48;44663.69;;;-137.44;100.00
26539;BME280;14205;43.200;24.170;2023-07-20T06:46:13;44745.69;;;-137.44;100.00
26539;BME280;14205;43.200;24.170;2023-07-20T06:48:39;44729.69;;;-137.44;100.00
26539;BME280;14205;43.200;24.170;2023-07-20T06:51:04;44661.69;;;-137.44;100.00
26539;BME280;14205;43.200;24.170;2023-07-20T06:53:30;44635.69;;;-137.44;100.00
26539;BME280;14205;43.200;24.170;2023-07-20T06:55:56;44623.69;;;-137.44;100.00
26539;BME280;14205;43.200;24.170;2023-07-20T06:58:24;44695.69;;;-137.44;100.00
26539;BME280;14205;43.200;24.170;2023-07-20T07:00:50;44609.69;;;-137.44;100.00
26539;BME280;14205;43.200;24.170;2023-07-20T07:03:15;44473.69;;;-137.44;100.00
26539;BME280;14205;43.200;24.170;2023-07-20T07:05:41;44511.69;;;-137.44;100.00
26539;BME280;14205;43.200;24.170;2023-07-20T07:08:06;44481.69;;;-137.44;100.00
26539;BME280;14205;43.200;24.170;2023-07-20T07:10:33;44445.69;;;-137.44;100.00
26539;BME280;14205;43.200;24.170;2023-07-20T07:12:59;44515.69;;;-137.44;100.00
26539;BME280;14205;43.200;24.170;2023-07-20T07:15:26;44623.69;;;-137.44;100.00
26539;BME280;14205;43.200;24.170;2023-07-20T07:17:51;44629.69;;;-137.44;100.00
26539;BME280;14205;43.200;24.170;2023-07-20T07:20:17;44625.69;;;-137.44;100.00
26539;BME280;14205;43.200;24.170;2023-07-20T07:22:42;44455.69;;;-137.44;100.00
26539;BME280;14205;43.200;24.170;2023-07-20T07:25:09;44437.69;;;-137.44;100.00
26539;BME280;14205;43.200;24.170;2023-07-20T07:27:35;44555.69;;;-137.44;100.00
26539;BME280;14205;43.200;24.170;2023-07-20T07:30:00;44571.69;;;-137.44;98.46
26539;BME280;14205;43.200;24.170;2023-07-20T07:32:25;44605.69;;;-137.44;97.46
26539;BME280;14205;43.200;24.170;2023-07-20T07:34:51;44639.69;;;-137.44;93.80
26539;BME280;14205;43.200;24.170;2023-07-20T07:37:17;44691.69;;;-137.44;97.47
26539;BME280;14205;43.200;24.170;2023-07-20T07:39:44;44739.69;;;-137.44;94.28
26539;BME280;14205;43.200;24.170;2023-07-20T07:42:10;44741.69;;;-137.44;91.32
26539;BME280;14205;43.200;24.170;2023-07-20T07:44:36;44751.69;;;-137.44;89.09
26539;BME280;14205;43.200;24.170;2023-07-20T07:47:01;44773.72;;;-137.44;88.79
26539;BME280;14205;43.200;24.170;2023-07-20T07:49:27;44827.72;;;-137.44;87.94
26539;BME280;14205;43.200;24.170;2023-07-20T07:51:53;44937.72;;;-137.44;86.46
26539;BME280;14205;43.200;24.170;2023-07-20T07:54:18;44989.72;;;-137.44;87.32
26539;BME280;14205;43.200;24.170;2023-07-20T07:56:44;44957.72;;;-137.44;88.48
26539;BME280;14205;43.200;24.170;2023-07-20T07:59:09;44987.72;;;-137.44;87.26
26539;BME280;14205;43.200;24.170;2023-07-20T08:01:35;45117.75;;;-137.44;85.85
26539;BME280;14205;43.200;24.170;2023-07-20T08:04:00;45041.75;;;-137.44;89.36
26539;BME280;14205;43.200;24.170;2023-07-20T08:06:26;45075.75;;;-137.44;91.50
26539;BME280;14205;43.200;24.170;2023-07-20T08:08:51;44989.72;;;-137.44;94.11
26539;BME280;14205;43.200;24.170;2023-07-20T08:11:17;44903.72;;;-137.44;98.40
26539;BME280;14205;43.200;24.170;2023-07-20T08:13:43;44875.72;;;-137.44;99.17
26539;BME280;14205;43.200;24.170;2023-07-20T08:16:09;44965.72;;;-137.44;98.62
26539;BME280;14205;43.200;24.170;2023-07-20T08:18:34;45115.75;;;-137.44;94.74
26539;BME280;14205;43.200;24.170;2023-07-20T08:21:00;45141.75;;;-137.44;92.37
26539;BME280;14205;43.200;24.170;2023-07-20T08:23:25;45085.75;;;-137.44;98.51
26539;BME280;14205;43.200;24.170;2023-07-20T08:25:52;45155.78;;;-137.44;93.34
26539;BME280;14205;43.200;24.170;2023-07-20T08:28:18;45179.78;;;-137.44;95.72
26539;BME280;14205;43.200;24.170;2023-07-20T08:30:48;45283.78;;;-137.44;89.17
26539;BME280;14205;43.200;24.170;2023-07-20T08:33:15;44697.69;;;-137.44;100.00
26539;BME280;14205;43.200;24.170;2023-07-20T08:35:41;44685.69;;;-137.44;100.00
26539;BME280;14205;43.200;24.170;2023-07-20T08:38:07;44657.69;;;-137.44;100.00
26539;BME280;14205;43.200;24.170;2023-07-20T08:40:33;44925.72;;;-137.44;99.86
26539;BME280;14205;43.200;24.170;2023-07-20T08:42:59;44941.72;;;-137.44;99.17
26539;BME280;14205;43.200;24.170;2023-07-20T08:45:28;45013.75;;;-137.44;96.42
26539;BME280;14205;43.200;24.170;2023-07-20T08:47:58;45347.81;;;-137.44;89.93
26539;BME280;14205;43.200;24.170;2023-07-20T08:50:26;45317.81;;;-137.44;89.67
26539;BME280;14205;43.200;24.170;2023-07-20T08:52:52;45567.88;;;-137.44;84.16
26539;BME280;14205;43.200;24.170;2023-07-20T08:55:22;45633.91;;;-137.44;82.41
26539;BME280;14205;43.200;24.170;2023-07-20T08:57:50;45489.84;;;-137.44;84.69
26539;BME280;14205;43.200;24.170;2023-07-20T09:00:16;45369.81;;;-137.44;85.89
26539;BME280;14205;43.200;24.170;2023-07-20T09:02:45;45277.78;;;-137.44;87.33
26539;BME280;14205;43.200;24.170;2023-07-20T09:05:11;45393.81;;;-137.44;84.65
26539;BME280;14205;43.200;24.170;2023-07-20T09:07:39;45573.88;;;-137.44;80.03
26539;BME280;14205;43.200;24.170;2023-07-20T09:10:06;45525.88;;;-137.44;79.48
26539;BME280;14205;43.200;24.170;2023-07-20T09:12:35;46052.09;;;-137.44;69.92
26539;BME280;14205;43.200;24.170;2023-07-20T09:15:00;46222.16;;;-137.44;68.62
26539;BME280;14205;43.200;24.170;2023-07-20T09:17:26;46074.09;;;-137.44;68.62
26539;BME280;14205;43.200;24.170;2023-07-20T09:19:51;46186.16;;;-137.44;66.93
26539;BME280;14205;43.200;24.170;2023-07-20T09:22:17;45733.94;;;-137.44;73.42
26539;BME280;14205;43.200;24.170;2023-07-20T09:24:43;46440.28;;;-137.44;63.70
26539;BME280;14205;43.200;24.170;2023-07-20T09:27:09;46346.25;;;-137.44;63.47
26539;BME280;14205;43.200;24.170;2023-07-20T09:29:50;46478.31;;;-137.44;60.15
26539;BME280;14205;43.200;24.170;2023-07-20T09:32:19;46282.19;;;-137.44;62.49
26539;BME280;14205;43.200;24.170;2023-07-20T09:34:50;46822.53;;;-137.44;55.85
26539;BME280;14205;43.200;24.170;2023-07-20T09:37:23;46478.31;;;-137.44;60.33
26539;BME280;14205;43.200;24.170;2023-07-20T09:39:51;46520.34;;;-137.44;58.70
26539;BME280;14205;43.200;24.170;2023-07-20T09:42:17;46754.50;;;-137.44;58.48
26539;BME280;14205;43.200;24.170;2023-07-20T09:44:44;46640.41;;;-137.44;57.50
26539;BME280;14205;43.200;24.170;2023-07-20T09:47:10;46928.63;;;-137.44;51.87
26539;BME280;14205;43.200;24.170;2023-07-20T09:49:41;47130.78;;;-137.44;49.53
26539;BME280;14205;43.200;24.170;2023-07-20T09:52:11;46674.44;;;-137.44;54.36
26539;BME280;14205;43.200;24.170;2023-07-20T09:54:40;46970.66;;;-137.44;50.63
26539;BME280;14205;43.200;24.170;2023-07-20T09:57:09;46638.41;;;-137.44;51.06
26539;BME280;14205;43.200;24.170;2023-07-20T09:59:35;46342.22;;;-137.44;56.74
26539;BME280;14205;43.200;24.170;2023-07-20T10:02:01;46546.34;;;-137.44;54.34
26539;BME280;14205;43.200;24.170;2023-07-20T10:04:29;46670.44;;;-137.44;52.77
26539;BME280;14205;43.200;24.170;2023-07-20T10:06:55;46520.34;;;-137.44;56.83
26539;BME280;14205;43.200;24.170;2023-07-20T10:09:25;46482.31;;;-137.44;54.45
26539;BME280;14205;43.200;24.170;2023-07-20T10:11:51;46526.34;;;-137.44;58.39
26539;BME280;14205;43.200;24.170;2023-07-20T10:14:20;46552.38;;;-137.44;57.66
26539;BME280;14205;43.200;24.170;2023-07-20T10:16:55;46408.28;;;-137.44;59.27
26539;BME280;14205;43.200;24.170;2023-07-20T10:22:03;46756.50;;;-137.44;48.74
26539;BME280;14205;43.200;24.170;2023-07-20T10:24:32;46870.56;;;-137.44;46.81
26539;BME280;14205;43.200;24.170;2023-07-20T10:27:00;47098.75;;;-137.44;44.27
26539;BME280;14205;43.200;24.170;2023-07-20T10:29:26;47314.94;;;-137.44;42.09
26539;BME280;14205;43.200;24.170;2023-07-20T10:31:54;47174.81;;;-137.44;43.97
26539;BME280;14205;43.200;24.170;2023-07-20T10:34:20;47076.72;;;-137.44;47.35
26539;BME280;14205;43.200;24.170;2023-07-20T10:36:46;47064.72;;;-137.44;47.09
26539;BME280;14205;43.200;24.170;2023-07-20T10:39:30;46938.63;;;-137.44;48.94
26539;BME280;14205;43.200;24.170;2023-07-20T10:42:02;47637.22;;;-137.44;43.13
26539;BME280;14205;43.200;24.170;2023-07-20T10:44:29;47587.19;;;-137.44;43.95
26539;BME280;14205;43.200;24.170;2023-07-20T10:47:02;47350.97;;;-137.44;46.67
26539;BME280;14205;43.200;24.170;2023-07-20T10:49:28;47076.72;;;-137.44;49.36
26539;BME280;14205;43.200;24.170;2023-07-20T10:52:04;47000.69;;;-137.44;53.15
26539;BME280;14205;43.200;24.170;2023-07-20T10:57:16;46922.63;;;-137.44;56.13
26539;BME280;14205;43.200;24.170;2023-07-20T10:59:41;47166.81;;;-137.44;52.57
26539;BME280;14205;43.200;24.170;2023-07-20T11:02:08;47044.72;;;-137.44;50.44
26539;BME280;14205;43.200;24.170;2023-07-20T11:04:41;47038.69;;;-137.44;48.92
26539;BME280;14205;43.200;24.170;2023-07-20T11:07:07;47254.88;;;-137.44;46.16
26539;BME280;14205;43.200;24.170;2023-07-20T11:09:36;47379.00;;;-137.44;45.14
26539;BME280;14205;43.200;24.170;2023-07-20T11:12:14;47639.22;;;-137.44;42.88
26539;BME280;14205;43.200;24.170;2023-07-20T11:14:56;48139.75;;;-137.44;39.02
26539;BME280;14205;43.200;24.170;2023-07-20T11:17:29;48327.94;;;-137.44;37.99
26539;BME280;14205;43.200;24.170;2023-07-20T11:19:59;48432.06;;;-137.44;37.16
26539;BME280;14205;43.200;24.170;2023-07-20T11:22:28;48249.88;;;-137.44;38.24
26539;BME280;14205;43.200;24.170;2023-07-20T11:24:56;47647.22;;;-137.44;41.88
26539;BME280;14205;43.200;24.170;2023-07-20T11:27:21;47883.47;;;-137.44;39.59
26539;BME280;14205;43.200;24.170;2023-07-20T11:29:50;47737.31;;;-137.44;39.93
26539;BME280;14205;43.200;24.170;2023-07-20T11:32:22;47605.19;;;-137.44;42.04
26539;BME280;14205;43.200;24.170;2023-07-20T11:34:48;47170.81;;;-137.44;44.12
26539;BME280;14205;43.200;24.170;2023-07-20T11:37:14;47062.72;;;-137.44;44.35
26539;BME280;14205;43.200;24.170;2023-07-20T11:39:39;47090.75;;;-137.44;42.20
26539;BME280;14205;43.200;24.170;2023-07-20T11:42:05;47130.78;;;-137.44;41.97
26539;BME280;14205;43.200;24.170;2023-07-20T11:44:32;47160.81;;;-137.44;40.89
26539;BME280;14205;43.200;24.170;2023-07-20T11:49:29;47094.75;;;-137.44;39.17
26539;BME280;14205;43.200;24.170;2023-07-20T11:51:56;47641.22;;;-137.44;35.76
26539;BME280;14205;43.200;24.170;2023-07-20T11:54:23;47759.34;;;-137.44;37.32
26539;BME280;14205;43.200;24.170;2023-07-20T11:56:53;47751.34;;;-137.44;36.64
26539;BME280;14205;43.200;24.170;2023-07-20T11:59:20;47927.50;;;-137.44;35.48
26539;BME280;14205;43.200;24.170;2023-07-20T12:01:45;47939.53;;;-137.44;34.22
26539;BME280;14205;43.200;24.170;2023-07-20T12:04:10;48169.78;;;-137.44;31.83
26539;BME280;14205;43.200;24.170;2023-07-20T12:06:36;48083.69;;;-137.44;31.24
26539;BME280;14205;43.200;24.170;2023-07-20T12:09:01;48528.19;;;-137.44;30.02
26539;BME280;14205;43.200;24.170;2023-07-20T12:11:34;48372.00;;;-137.44;30.48
26539;BME280;14205;43.200;24.170;2023-07-20T12:13:59;47861.44;;;-137.44;32.18
26539;BME280;14205;43.200;24.170;2023-07-20T12:16:29;48380.00;;;-137.44;30.72
26539;BME280;14205;43.200;24.170;2023-07-20T12:21:26;48003.59;;;-137.44;31.15
26539;BME280;14205;43.200;24.170;2023-07-20T12:23:51;47923.50;;;-137.44;32.24
26539;BME280;14205;43.200;24.170;2023-07-20T12:26:17;47699.28;;;-137.44;32.37
26539;BME280;14205;43.200;24.170;2023-07-20T12:28:42;47789.38;;;-137.44;32.11
26539;BME280;14205;43.200;24.170;2023-07-20T12:31:09;48175.78;;;-137.44;30.34
26539;BME280;14205;43.200;24.170;2023-07-20T12:33:36;48063.66;;;-137.44;32.93
26539;BME280;14205;43.200;24.170;2023-07-20T12:36:01;48331.97;;;-137.44;33.37
26539;BME280;14205;43.200;24.170;2023-07-20T12:38:27;48147.75;;;-137.44;32.45